createdAt,value
2022-10-29T00:00:29.841Z,5.53
2022-10-29T00:05:33.844Z,5.80
2022-10-29T00:10:38.887Z,6.25
2022-10-29T00:15:42.767Z,5.70
2022-10-29T00:20:46.427Z,5.93
2022-10-29T00:25:51.458Z,5.80
2022-10-29T00:30:55.151Z,6.15
2022-10-29T00:36:00.648Z,5.68
2022-10-29T00:41:08.196Z,6.65
2022-10-29T00:46:17.507Z,6.15
2022-10-29T00:51:21.853Z,5.95
2022-10-29T00:56:29.083Z,7.40
2022-10-29T01:01:33.016Z,5.78
2022-10-29T01:06:36.754Z,5.90
2022-10-29T01:11:49.846Z,6.20
2022-10-29T01:17:06.010Z,6.05
2022-10-29T01:22:14.807Z,5.60
2022-10-29T01:27:59.768Z,6.45
2022-10-29T01:33:11.497Z,6.53
2022-10-29T01:38:30.609Z,5.90
2022-10-29T01:43:39.029Z,6.78
2022-10-29T01:48:47.304Z,6.53
2022-10-29T01:53:52.228Z,6.30
2022-10-29T01:59:00.036Z,7.05
2022-10-29T02:04:21.753Z,7.30
2022-10-29T02:09:32.745Z,6.38
2022-10-29T02:14:39.989Z,6.22
2022-10-29T02:19:45.175Z,6.60
2022-10-29T02:24:48.833Z,6.20
2022-10-29T02:29:52.439Z,6.30
2022-10-29T02:34:59.688Z,6.43
2022-10-29T02:45:58.167Z,5.85
2022-10-29T02:51:03.205Z,6.85
2022-10-29T02:56:07.817Z,6.53
2022-10-29T03:01:11.517Z,6.35
2022-10-29T03:06:17.727Z,6.18
2022-10-29T03:11:21.992Z,6.83
2022-10-29T03:16:25.664Z,6.50
2022-10-29T03:21:30.709Z,6.82
2022-10-29T03:26:34.387Z,6.13
2022-10-29T03:31:37.988Z,6.32
2022-10-29T03:36:43.067Z,5.72
2022-10-29T03:41:46.795Z,6.05
2022-10-29T03:46:50.421Z,6.30
2022-10-29T03:51:55.427Z,6.10
2022-10-29T03:56:59.243Z,6.43
2022-10-29T04:02:03.034Z,6.05
2022-10-29T04:07:08.159Z,6.20
2022-10-29T04:12:11.835Z,5.63
2022-10-29T04:17:15.513Z,6.25
2022-10-29T04:28:17.586Z,6.45
2022-10-29T04:33:07.773Z,6.18
2022-10-29T04:38:14.007Z,6.28
2022-10-29T04:43:18.383Z,6.50
2022-10-29T04:48:22.382Z,6.25
2022-10-29T04:53:27.490Z,6.50
2022-10-29T04:58:31.109Z,6.03
2022-10-29T05:03:34.840Z,6.25
2022-10-29T05:08:39.844Z,6.28
2022-10-29T05:13:45.205Z,6.28
2022-10-29T05:18:48.919Z,5.85
2022-10-29T05:23:53.899Z,6.68
2022-10-29T05:28:57.545Z,6.28
2022-10-29T05:34:01.160Z,7.15
2022-10-29T05:39:06.246Z,7.25
2022-10-29T05:44:09.965Z,6.53
2022-10-29T05:49:13.644Z,7.15
2022-10-29T05:54:18.613Z,6.72
2022-10-29T05:59:22.244Z,7.28
2022-10-29T06:04:25.924Z,7.13
2022-10-29T06:09:31.006Z,6.82
2022-10-29T06:14:34.698Z,6.22
2022-10-29T06:24:43.255Z,7.00
2022-10-29T06:29:46.869Z,7.70
2022-10-29T06:34:50.453Z,6.53
2022-10-29T06:39:55.396Z,7.18
2022-10-29T06:44:58.985Z,7.55
2022-10-29T06:50:02.699Z,7.28
2022-10-29T06:55:09.138Z,6.55
2022-10-29T07:00:13.730Z,6.53
2022-10-29T07:05:17.581Z,7.50
2022-10-29T07:10:22.667Z,7.03
2022-10-29T07:15:30.913Z,8.05
2022-10-29T07:20:37.727Z,7.20
2022-10-29T07:25:53.535Z,7.40
2022-10-29T07:31:01.547Z,6.10
2022-10-29T07:36:05.571Z,6.85
2022-10-29T07:41:10.637Z,6.50
2022-10-29T07:46:14.231Z,7.53
2022-10-29T07:51:17.876Z,7.07
2022-10-29T07:56:22.866Z,7.82
2022-10-29T08:01:26.645Z,7.65
2022-10-29T08:06:30.417Z,6.72
2022-10-29T08:11:35.776Z,7.45
2022-10-29T08:16:39.543Z,6.70
2022-10-29T08:21:43.240Z,6.82
2022-10-29T08:26:48.342Z,7.00
2022-10-29T08:31:52.076Z,7.13
2022-10-29T08:36:55.812Z,6.95
2022-10-29T08:42:11.765Z,6.85
2022-10-29T08:47:20.531Z,6.33
2022-10-29T08:52:28.590Z,6.70
2022-10-29T08:57:38.416Z,7.18
2022-10-29T09:02:42.145Z,7.38
2022-10-29T09:08:02.334Z,7.43
2022-10-29T09:13:25.213Z,7.15
2022-10-29T09:18:44.476Z,7.20
2022-10-29T09:24:01.623Z,7.15
2022-10-29T09:29:28.846Z,6.88
2022-10-29T09:34:36.881Z,7.53
2022-10-29T09:39:43.222Z,6.75
2022-10-29T09:44:53.191Z,7.53
2022-10-29T09:50:08.383Z,6.50
2022-10-29T09:55:21.785Z,6.35
2022-10-29T10:00:29.000Z,6.47
2022-10-29T10:05:55.624Z,5.35
2022-10-29T10:16:07.532Z,4.90
2022-10-29T10:26:36.915Z,3.90
2022-10-29T10:31:42.584Z,4.22
2022-10-29T10:36:50.146Z,3.80
2022-10-29T10:41:54.654Z,3.65
2022-10-29T10:47:06.094Z,3.33
2022-10-29T10:52:18.210Z,3.22
2022-10-29T10:57:25.853Z,3.15
2022-10-29T11:02:40.507Z,3.83
2022-10-29T11:07:52.143Z,3.38
2022-10-29T11:12:57.844Z,2.80
2022-10-29T11:18:12.587Z,3.30
2022-10-29T11:23:28.370Z,2.95
2022-10-29T11:28:41.675Z,3.00
2022-10-29T11:33:58.709Z,3.08
2022-10-29T11:39:10.030Z,3.13
2022-10-29T11:44:15.523Z,3.03
2022-10-29T11:49:38.162Z,2.55
2022-10-29T11:54:56.903Z,2.78
2022-10-29T12:00:13.021Z,2.33
2022-10-29T12:05:24.275Z,2.28
2022-10-29T12:10:42.561Z,2.70
2022-10-29T12:15:53.952Z,3.03
2022-10-29T12:21:06.425Z,2.10
2022-10-29T12:26:15.569Z,2.20
2022-10-29T12:31:26.705Z,2.50
2022-10-29T12:36:37.955Z,2.22
2022-10-29T12:41:45.262Z,2.35
2022-10-29T12:46:56.887Z,2.53
2022-10-29T12:52:06.091Z,2.40
2022-10-29T12:57:28.920Z,2.17
2022-10-29T13:02:51.655Z,2.35
2022-10-29T13:08:28.561Z,2.45
2022-10-29T13:13:50.076Z,2.35
2022-10-29T13:19:17.275Z,2.45
2022-10-29T13:24:22.799Z,2.40
2022-10-29T13:29:50.535Z,2.33
2022-10-29T13:34:56.861Z,2.50
2022-10-29T13:40:38.028Z,2.92
2022-10-29T13:45:47.866Z,2.20
2022-10-29T13:50:53.416Z,2.60
2022-10-29T13:55:58.927Z,2.45
2022-10-29T14:01:10.370Z,2.63
2022-10-29T14:06:22.543Z,3.08
2022-10-29T14:11:30.187Z,2.60
2022-10-29T14:16:35.393Z,3.03
2022-10-29T14:21:40.672Z,3.00
2022-10-29T14:26:46.069Z,2.97
2022-10-29T14:32:05.958Z,3.15
2022-10-29T14:37:16.965Z,2.67
2022-10-29T14:42:27.793Z,2.80
2022-10-29T14:47:34.866Z,3.30
2022-10-29T14:52:42.267Z,2.70
2022-10-29T14:57:49.339Z,3.03
2022-10-29T15:02:56.086Z,2.88
2022-10-29T15:08:08.210Z,2.85
2022-10-29T15:13:22.526Z,2.35
2022-10-29T15:18:27.970Z,3.13
2022-10-29T15:23:36.886Z,2.90
2022-10-29T15:28:42.428Z,2.90
2022-10-29T15:33:50.893Z,2.90
2022-10-29T15:39:26.681Z,3.35
2022-10-29T15:44:36.376Z,2.97
2022-10-29T15:49:41.387Z,3.05
2022-10-29T15:54:45.069Z,3.65
2022-10-29T15:59:48.758Z,2.85
2022-10-29T16:04:53.886Z,2.78
2022-10-29T16:09:59.982Z,2.90
2022-10-29T16:15:03.643Z,3.03
2022-10-29T16:20:14.370Z,2.72
2022-10-29T16:25:25.903Z,3.25
2022-10-29T16:30:29.887Z,3.75
2022-10-29T16:35:34.914Z,2.97
2022-10-29T16:40:38.644Z,3.63
2022-10-29T16:45:42.464Z,2.70
2022-10-29T16:50:47.517Z,3.08
2022-10-29T16:55:51.194Z,3.10
2022-10-29T17:01:06.332Z,2.88
2022-10-29T17:06:12.306Z,2.80
2022-10-29T17:11:16.022Z,3.28
2022-10-29T17:16:19.774Z,3.67
2022-10-29T17:21:25.138Z,3.28
2022-10-29T17:26:28.809Z,2.97
2022-10-29T17:31:32.576Z,3.15
2022-10-29T17:36:40.981Z,3.63
2022-10-29T17:41:44.761Z,3.63
2022-10-29T17:46:48.451Z,3.35
2022-10-29T17:51:53.937Z,3.65
2022-10-29T17:57:00.577Z,3.60
2022-10-29T18:02:04.472Z,4.13
2022-10-29T18:07:09.609Z,3.78
2022-10-29T18:12:13.193Z,3.40
2022-10-29T18:17:16.802Z,3.80
2022-10-29T18:22:22.035Z,4.00
2022-10-29T18:27:25.684Z,3.75
2022-10-29T18:32:29.332Z,3.65
2022-10-29T18:37:34.375Z,3.72
2022-10-29T18:42:38.009Z,3.90
2022-10-29T18:47:41.631Z,3.95
2022-10-29T18:52:46.800Z,4.25
2022-10-29T18:57:50.542Z,4.13
2022-10-29T19:02:54.292Z,4.10
2022-10-29T19:08:03.141Z,3.65
2022-10-29T19:13:07.419Z,4.28
2022-10-29T19:18:11.066Z,3.50
2022-10-29T19:23:24.646Z,3.47
2022-10-29T19:28:30.725Z,3.20
2022-10-29T19:33:34.763Z,3.30
2022-10-29T19:38:39.804Z,3.70
2022-10-29T19:43:46.176Z,3.50
2022-10-29T19:48:51.757Z,4.10
2022-10-29T19:53:58.026Z,4.00
2022-10-29T19:59:01.716Z,3.65
2022-10-29T20:04:05.639Z,4.10
2022-10-29T20:09:11.183Z,3.92
2022-10-29T20:14:15.090Z,3.90
2022-10-29T20:19:18.858Z,3.83
2022-10-29T20:24:23.846Z,3.50
2022-10-29T20:29:27.551Z,3.28
2022-10-29T20:34:31.170Z,3.70
2022-10-29T20:39:36.206Z,3.38
2022-10-29T20:44:39.879Z,4.25
2022-10-29T20:49:43.563Z,3.83
2022-10-29T20:54:48.541Z,4.10
2022-10-29T20:59:52.240Z,3.90
2022-10-29T21:04:55.932Z,3.63
2022-10-29T21:10:00.868Z,4.10
2022-10-29T21:15:04.878Z,3.45
2022-10-29T21:20:09.168Z,3.50
2022-10-29T21:25:14.151Z,3.97
2022-10-29T21:30:17.876Z,3.63
2022-10-29T21:35:21.741Z,3.90
2022-10-29T21:40:26.791Z,3.85
2022-10-29T21:45:30.376Z,3.67
2022-10-29T21:50:34.148Z,4.03
2022-10-29T21:55:39.165Z,3.95
2022-10-29T22:00:42.796Z,4.05
2022-10-29T22:05:46.565Z,4.10
2022-10-29T22:10:51.549Z,4.05
2022-10-29T22:15:55.375Z,3.55
2022-10-29T22:21:16.032Z,4.40
2022-10-29T22:26:22.942Z,4.30
2022-10-29T22:31:27.426Z,4.47
2022-10-29T22:36:31.918Z,4.88
2022-10-29T22:41:36.956Z,4.55
2022-10-29T22:46:40.567Z,4.57
2022-10-29T22:51:44.212Z,4.60
2022-10-29T22:56:49.187Z,4.18
2022-10-29T23:01:52.933Z,4.07
2022-10-29T23:07:01.603Z,6.00
2022-10-29T23:12:07.474Z,6.75
2022-10-29T23:17:11.090Z,7.47
2022-10-29T23:27:28.180Z,5.50
2022-10-29T23:32:31.790Z,5.05
2022-10-29T23:37:35.333Z,4.80
2022-10-29T23:42:40.340Z,4.88
2022-10-29T23:47:44.095Z,4.38
2022-10-29T23:52:47.734Z,4.28
2022-10-29T23:57:52.859Z,4.07
